Time;durP1;ratioP1;P1;durP2;ratioP2;P2;SDS_P1;SDS_P2;PMS_P1;PMS_P2;Temp;Humidity;BMP_temperature;BMP_pressure;BME280_temperature;BME280_humidity;BME280_pressure;Samples;Min_cycle;Max_cycle;Signal;HPM_P1;HPM_P2
2022/10/22 00:02:21;;;;;;;0.80;0.60;;;;;;;17.27;64.53;97281.38;5055122;28;20586;-74
2022/10/22 00:04:48;;;;;;;5.67;0.90;;;;;;;17.27;64.43;97278.72;5059290;28;20187;-74
2022/10/22 00:07:13;;;;;;;3.50;0.60;;;;;;;17.24;64.50;97275.66;5048097;28;20183;-75
2022/10/22 00:09:39;;;;;;;1.40;0.70;;;;;;;17.28;64.88;97269.78;5052122;28;20793;-72
2022/10/22 00:12:05;;;;;;;1.10;0.70;;;;;;;17.28;64.74;97264.47;5052630;28;20274;-74
2022/10/22 00:14:30;;;;;;;1.00;0.50;;;;;;;17.29;65.01;97265.31;5053573;28;20191;-75
2022/10/22 00:16:59;;;;;;;2.37;0.80;;;;;;;17.27;65.47;97276.09;5052346;28;20275;-73
2022/10/22 00:19:26;;;;;;;6.70;0.60;;;;;;;17.15;65.61;97267.03;5052712;28;20241;-74
2022/10/22 00:21:51;;;;;;;2.03;0.80;;;;;;;16.97;66.52;97256.94;5053027;28;20436;-73
2022/10/22 00:24:17;;;;;;;4.90;0.67;;;;;;;17.09;66.56;97251.94;5048659;28;20430;-74
2022/10/22 00:26:42;;;;;;;3.83;0.70;;;;;;;17.13;66.45;97250.53;5052086;28;20325;-74
2022/10/22 00:29:08;;;;;;;3.00;0.60;;;;;;;17.17;66.40;97263.22;5051832;28;20693;-75
2022/10/22 00:31:33;;;;;;;1.10;0.70;;;;;;;17.06;66.70;97265.56;5052391;28;20182;-75
2022/10/22 00:33:58;;;;;;;1.97;0.60;;;;;;;16.98;66.93;97279.75;5049713;28;20639;-75
2022/10/22 00:36:24;;;;;;;1.37;0.70;;;;;;;17.03;66.95;97272.06;5047365;28;20316;-74
2022/10/22 00:38:49;;;;;;;5.43;0.80;;;;;;;16.96;67.32;97271.16;5053104;28;20291;-75
2022/10/22 00:41:15;;;;;;;5.40;0.70;;;;;;;16.85;67.56;97267.19;5054395;28;20661;-76
2022/10/22 00:43:56;;;;;;;1.80;0.70;;;;;;;16.83;67.70;97271.84;5059765;28;20267;-76
2022/10/22 00:46:22;;;;;;;5.63;0.80;;;;;;;16.92;67.33;97265.41;5050291;28;20190;-75
2022/10/22 00:48:47;;;;;;;1.70;1.00;;;;;;;16.88;67.63;97266.81;5051194;28;20442;-75
2022/10/22 00:51:13;;;;;;;2.17;1.67;;;;;;;16.92;67.56;97276.00;5051194;28;20187;-73
2022/10/22 00:53:43;;;;;;;3.57;0.77;;;;;;;16.85;67.95;97264.56;5052098;28;20547;-74
2022/10/22 00:56:09;;;;;;;2.13;0.70;;;;;;;16.89;67.69;97255.19;5049895;28;20197;-74
2022/10/22 00:58:36;;;;;;;1.50;1.13;;;;;;;16.92;67.91;97249.53;5033791;28;20438;-72
2022/10/22 01:01:02;;;;;;;1.17;0.80;;;;;;;16.96;67.60;97250.00;5050555;28;20449;-74
2022/10/22 01:03:27;;;;;;;1.73;0.60;;;;;;;16.93;67.94;97259.13;5050694;28;20998;-73
2022/10/22 01:05:57;;;;;;;1.67;0.60;;;;;;;16.89;67.92;97263.97;5052219;28;20222;-74
2022/10/22 01:08:42;;;;;;;4.73;1.17;;;;;;;16.89;68.17;97256.03;5049938;28;20187;-74
2022/10/22 01:11:26;;;;;;;2.00;0.77;;;;;;;16.95;67.99;97249.19;5050563;28;20483;-74
2022/10/22 01:14:12;;;;;;;1.77;0.87;;;;;;;16.92;68.14;97244.25;5052262;28;20507;-73
2022/10/22 01:16:45;;;;;;;0.90;0.60;;;;;;;16.87;68.02;97249.31;5026436;28;20427;-75
2022/10/22 01:19:28;;;;;;;6.53;0.87;;;;;;;16.88;68.10;97229.78;5050340;28;20452;-74
2022/10/22 01:22:03;;;;;;;3.63;0.83;;;;;;;16.86;68.30;97227.28;5051694;28;20444;-75
2022/10/22 01:24:51;;;;;;;0.90;0.70;;;;;;;16.93;68.30;97231.84;5051585;28;20512;-74
2022/10/22 01:27:37;;;;;;;5.53;0.70;;;;;;;16.88;68.37;97224.47;5050482;28;20479;-74
2022/10/22 01:30:04;;;;;;;1.10;0.70;;;;;;;16.79;68.58;97217.66;5050786;28;20441;-74
2022/10/22 01:32:34;;;;;;;2.50;0.90;;;;;;;16.73;68.79;97206.84;5044003;28;20468;-73
2022/10/22 01:35:03;;;;;;;1.13;0.87;;;;;;;16.71;69.45;97215.97;5042462;28;20430;-74
2022/10/22 01:37:32;;;;;;;1.50;0.80;;;;;;;16.71;69.22;97231.84;5043254;28;20917;-74
2022/10/22 01:39:59;;;;;;;4.30;1.03;;;;;;;16.76;69.49;97236.59;5050086;28;20445;-73
2022/10/22 01:42:24;;;;;;;7.00;0.90;;;;;;;16.72;69.46;97236.97;5042253;28;20461;-73
2022/10/22 01:44:50;;;;;;;3.77;0.90;;;;;;;16.79;69.13;97237.03;5051486;28;20487;-73
2022/10/22 01:47:30;;;;;;;2.60;0.90;;;;;;;16.80;69.12;97229.88;5048829;28;20617;-75
2022/10/22 01:50:33;;;;;;;4.83;1.00;;;;;;;16.79;69.15;97234.38;5051471;28;20206;-74
2022/10/22 01:53:01;;;;;;;3.93;0.83;;;;;;;16.78;69.17;97247.78;5047012;28;20425;-75
2022/10/22 01:55:42;;;;;;;1.10;0.70;;;;;;;16.79;69.36;97246.78;5050931;28;20977;-74
2022/10/22 01:58:26;;;;;;;1.00;0.80;;;;;;;16.70;69.27;97252.22;5048974;28;20512;-75
2022/10/22 02:01:04;;;;;;;2.63;0.77;;;;;;;16.71;69.19;97243.28;5051487;28;20849;-75
2022/10/22 02:03:44;;;;;;;6.83;0.80;;;;;;;16.80;68.82;97243.13;5046364;28;20560;-75
2022/10/22 02:06:15;;;;;;;3.90;1.00;;;;;;;16.85;69.08;97248.69;5049552;28;20928;-74
2022/10/22 02:08:42;;;;;;;2.03;0.80;;;;;;;16.86;68.85;97251.13;5050434;28;20991;-74
2022/10/22 02:11:08;;;;;;;1.97;0.70;;;;;;;16.85;68.65;97251.31;5050519;28;20957;-74
2022/10/22 02:13:37;;;;;;;1.87;0.90;;;;;;;16.81;68.35;97258.00;5033187;28;20426;-74
2022/10/22 02:16:06;;;;;;;1.20;0.80;;;;;;;16.78;68.68;97253.06;5022301;28;20427;-74
2022/10/22 02:18:31;;;;;;;1.40;0.80;;;;;;;16.81;68.57;97252.69;5048397;28;20442;-74
2022/10/22 02:20:58;;;;;;;8.73;0.80;;;;;;;16.79;68.59;97241.47;5050995;28;20756;-74
2022/10/22 02:23:23;;;;;;;2.17;0.97;;;;;;;16.84;68.59;97258.44;5049135;28;20297;-74
2022/10/22 02:25:54;;;;;;;1.63;0.70;;;;;;;16.81;68.69;97255.34;5050430;28;20437;-75
2022/10/22 02:28:28;;;;;;;3.10;0.73;;;;;;;16.86;68.42;97259.06;5031745;28;20668;-74
2022/10/22 02:30:56;;;;;;;2.50;0.70;;;;;;;16.85;68.11;97253.97;5051935;28;20437;-73
2022/10/22 02:33:25;;;;;;;1.53;0.70;;;;;;;16.84;68.37;97250.47;5048769;28;20786;-74
2022/10/22 02:35:51;;;;;;;1.00;0.60;;;;;;;16.74;68.41;97253.47;5045867;28;20444;-73
2022/10/22 02:38:17;;;;;;;1.57;0.80;;;;;;;16.74;68.87;97255.28;5044371;28;20431;-75
2022/10/22 02:40:42;;;;;;;1.00;0.60;;;;;;;16.79;68.65;97258.19;5017142;28;20195;-74
2022/10/22 02:43:08;;;;;;;3.13;0.67;;;;;;;16.74;68.47;97261.41;5048749;28;20210;-74
2022/10/22 02:45:33;;;;;;;1.37;0.83;;;;;;;16.52;69.47;97257.13;5050606;28;20179;-74
2022/10/22 02:47:59;;;;;;;1.93;0.70;;;;;;;16.67;68.93;97262.38;5049537;28;20179;-74
2022/10/22 02:50:25;;;;;;;2.90;1.03;;;;;;;16.65;69.00;97267.81;5049578;28;20203;-74
2022/10/22 02:52:50;;;;;;;1.63;0.60;;;;;;;16.61;68.97;97261.28;5050118;28;20300;-74
2022/10/22 02:55:16;;;;;;;0.97;0.73;;;;;;;16.48;69.23;97263.81;5046894;28;20232;-74
2022/10/22 02:57:41;;;;;;;2.73;0.77;;;;;;;16.52;69.28;97257.13;5045153;28;20188;-75
2022/10/22 03:00:08;;;;;;;2.90;0.70;;;;;;;16.56;69.05;97261.88;5050548;28;20199;-75
2022/10/22 03:02:34;;;;;;;4.40;0.80;;;;;;;16.58;68.94;97246.59;5048463;28;20221;-74
2022/10/22 03:04:59;;;;;;;3.53;1.07;;;;;;;16.50;69.44;97245.94;5042651;28;20414;-74
2022/10/22 03:07:25;;;;;;;1.33;0.70;;;;;;;16.56;68.81;97234.56;5047911;28;20556;-74
2022/10/22 03:09:50;;;;;;;3.27;0.90;;;;;;;16.62;68.74;97239.13;5050426;28;20207;-74
2022/10/22 03:12:16;;;;;;;3.00;0.90;;;;;;;16.69;68.52;97240.00;5045416;28;20214;-74
2022/10/22 03:14:41;;;;;;;1.20;0.90;;;;;;;16.70;68.36;97240.78;5049322;28;20187;-74
2022/10/22 03:17:06;;;;;;;1.67;0.70;;;;;;;16.61;68.54;97234.00;5047789;28;20611;-74
2022/10/22 03:19:32;;;;;;;2.83;0.80;;;;;;;16.66;68.27;97234.25;5049699;28;20256;-74
2022/10/22 03:22:00;;;;;;;1.97;0.70;;;;;;;16.64;68.37;97236.28;5043078;28;20183;-74
2022/10/22 03:24:37;;;;;;;7.07;0.70;;;;;;;16.63;68.47;97235.47;5048387;28;20190;-74
2022/10/22 03:27:02;;;;;;;2.37;0.70;;;;;;;16.73;68.29;97227.19;5049332;28;20544;-73
2022/10/22 03:29:29;;;;;;;1.53;0.93;;;;;;;16.69;68.21;97228.59;5046165;28;20481;-72
2022/10/22 03:31:54;;;;;;;2.13;0.70;;;;;;;16.71;68.33;97222.09;5052776;28;20176;-73
2022/10/22 03:34:20;;;;;;;1.10;0.63;;;;;;;16.78;68.45;97223.97;5048963;28;20502;-73
2022/10/22 03:36:47;;;;;;;4.03;0.80;;;;;;;16.77;68.58;97209.09;5049749;28;20207;-73
2022/10/22 03:39:13;;;;;;;1.50;0.70;;;;;;;16.73;68.54;97206.84;5049555;28;20460;-73
2022/10/22 03:41:39;;;;;;;5.30;0.70;;;;;;;16.72;68.59;97215.81;5039615;28;20434;-74
2022/10/22 03:44:05;;;;;;;1.67;0.77;;;;;;;16.66;68.92;97213.91;5029047;28;20474;-74
2022/10/22 03:46:30;;;;;;;1.27;0.70;;;;;;;16.56;69.26;97224.00;5037463;28;20637;-74
2022/10/22 03:48:56;;;;;;;1.97;0.70;;;;;;;16.50;69.43;97238.81;5037187;28;20230;-75
2022/10/22 03:51:21;;;;;;;1.83;0.80;;;;;;;16.55;69.44;97247.00;5032926;28;20709;-73
2022/10/22 03:53:47;;;;;;;1.17;0.70;;;;;;;16.47;69.68;97244.47;5044785;28;20587;-74
2022/10/22 03:56:13;;;;;;;5.70;1.10;;;;;;;16.39;70.12;97237.47;5033174;28;20216;-74
2022/10/22 03:58:39;;;;;;;3.07;0.90;;;;;;;16.43;69.66;97230.81;5043981;28;20202;-71
2022/10/22 04:01:06;;;;;;;1.00;0.60;;;;;;;16.41;70.01;97227.53;5033986;28;20203;-74
2022/10/22 04:03:32;;;;;;;2.90;0.90;;;;;;;16.42;69.75;97231.81;5043907;28;20812;-74
2022/10/22 04:06:09;;;;;;;2.60;0.70;;;;;;;16.44;69.92;97218.41;5052457;28;20436;-74
2022/10/22 04:08:34;;;;;;;5.27;0.80;;;;;;;16.50;69.65;97220.28;5051035;28;20205;-74
2022/10/22 04:11:00;;;;;;;3.20;1.00;;;;;;;16.47;69.55;97230.44;5048563;28;20433;-73
2022/10/22 04:13:25;;;;;;;1.90;1.20;;;;;;;16.39;69.41;97234.81;5051998;28;20266;-74
2022/10/22 04:15:51;;;;;;;2.37;0.90;;;;;;;16.47;69.25;97265.63;5053401;28;20187;-74
2022/10/22 04:18:18;;;;;;;2.10;0.60;;;;;;;16.49;69.42;97268.09;5051723;28;20654;-73
2022/10/22 04:20:44;;;;;;;4.10;0.70;;;;;;;16.54;69.20;97263.03;5052681;28;20230;-72
2022/10/22 04:23:09;;;;;;;0.80;0.60;;;;;;;16.36;69.31;97256.38;5050001;28;20469;-74
2022/10/22 04:25:35;;;;;;;4.73;0.90;;;;;;;16.20;69.81;97267.19;5052835;28;20258;-75
2022/10/22 04:28:00;;;;;;;1.27;0.70;;;;;;;16.24;69.93;97269.25;5052185;28;20194;-74
2022/10/22 04:30:26;;;;;;;2.10;0.70;;;;;;;16.17;70.03;97265.75;5046702;28;20209;-74
2022/10/22 04:32:51;;;;;;;6.10;0.90;;;;;;;16.29;69.62;97268.69;5051092;28;20177;-74
2022/10/22 04:35:17;;;;;;;1.13;0.70;;;;;;;16.35;69.39;97257.38;5052079;28;20704;-75
2022/10/22 04:37:42;;;;;;;1.97;0.80;;;;;;;16.35;69.28;97260.03;5050153;28;20175;-74
2022/10/22 04:40:08;;;;;;;8.77;0.87;;;;;;;16.28;69.40;97264.41;5048742;28;20210;-74
2022/10/22 04:42:34;;;;;;;3.63;0.80;;;;;;;16.36;69.28;97266.97;5054400;28;20238;-74
2022/10/22 04:44:59;;;;;;;4.90;0.70;;;;;;;16.22;69.36;97275.75;5050247;28;20479;-75
2022/10/22 04:47:25;;;;;;;5.63;0.70;;;;;;;16.29;69.29;97281.91;5051354;28;20206;-74
2022/10/22 04:49:50;;;;;;;1.10;0.70;;;;;;;16.33;69.16;97271.78;5051828;28;20202;-73
2022/10/22 04:52:15;;;;;;;0.90;0.60;;;;;;;16.33;68.90;97271.78;5051874;28;20183;-73
2022/10/22 04:54:41;;;;;;;2.30;0.80;;;;;;;16.34;69.05;97268.97;5052213;28;20261;-73
2022/10/22 04:57:06;;;;;;;0.90;0.50;;;;;;;16.38;68.91;97264.91;5049169;28;20599;-73
2022/10/22 04:59:32;;;;;;;1.10;0.83;;;;;;;16.39;68.76;97268.41;5052260;28;20209;-73
2022/10/22 05:01:57;;;;;;;5.20;0.73;;;;;;;16.35;68.78;97273.25;5052361;28;20265;-73
2022/10/22 05:04:23;;;;;;;2.17;0.70;;;;;;;16.36;68.56;97287.28;5050362;28;20214;-74
2022/10/22 05:06:48;;;;;;;5.00;0.70;;;;;;;16.30;68.48;97288.84;5051265;28;20183;-73
2022/10/22 05:09:16;;;;;;;1.37;0.70;;;;;;;16.36;68.68;97280.19;5051608;28;20707;-73
2022/10/22 05:11:45;;;;;;;2.03;0.60;;;;;;;16.32;68.69;97291.31;5052086;28;20183;-74
2022/10/22 05:14:11;;;;;;;4.73;0.97;;;;;;;16.32;68.63;97286.84;5050311;28;20437;-74
2022/10/22 05:16:37;;;;;;;3.13;0.90;;;;;;;16.37;68.55;97284.47;5051308;28;20455;-74
2022/10/22 05:19:03;;;;;;;2.70;0.90;;;;;;;16.45;68.43;97283.50;5050571;28;20441;-74
2022/10/22 05:21:28;;;;;;;1.17;0.70;;;;;;;16.37;68.28;97284.47;5051502;28;20183;-75
2022/10/22 05:23:55;;;;;;;2.10;0.90;;;;;;;16.34;68.28;97284.84;5047652;28;20832;-75
2022/10/22 05:26:21;;;;;;;1.13;0.70;;;;;;;16.37;68.17;97289.75;5050992;28;20197;-73
2022/10/22 05:28:48;;;;;;;1.30;0.83;;;;;;;16.35;68.27;97291.75;5050159;28;20867;-74
2022/10/22 05:31:14;;;;;;;5.37;0.93;;;;;;;16.37;68.04;97294.22;5051385;28;20958;-75
2022/10/22 05:33:40;;;;;;;1.40;0.70;;;;;;;16.36;68.07;97298.69;5049732;28;20421;-74
2022/10/22 05:36:07;;;;;;;6.40;0.60;;;;;;;16.32;67.93;97305.34;5050762;28;20537;-75
2022/10/22 05:38:33;;;;;;;1.00;0.60;;;;;;;16.38;67.82;97311.72;5049713;28;20450;-74
2022/10/22 05:41:00;;;;;;;1.63;1.03;;;;;;;16.35;67.60;97314.72;5051920;28;20436;-74
2022/10/22 05:43:26;;;;;;;1.10;0.83;;;;;;;16.38;67.53;97328.41;5042222;28;20211;-74
2022/10/22 05:45:51;;;;;;;5.80;0.90;;;;;;;16.35;67.83;97342.00;5041579;28;20425;-74
2022/10/22 05:48:17;;;;;;;3.37;0.77;;;;;;;16.42;67.54;97345.53;5037225;28;20836;-74
2022/10/22 05:50:45;;;;;;;0.90;0.70;;;;;;;16.48;67.47;97359.03;5041933;28;20211;-75
2022/10/22 05:53:10;;;;;;;1.70;0.70;;;;;;;16.33;67.40;97357.25;5035552;28;20195;-75
2022/10/22 05:55:36;;;;;;;2.60;0.80;;;;;;;16.28;67.33;97362.25;5047725;28;20425;-74
2022/10/22 05:58:03;;;;;;;0.90;0.67;;;;;;;16.41;67.21;97364.25;5040268;28;20175;-74
2022/10/22 06:00:29;;;;;;;1.50;0.70;;;;;;;16.47;67.19;97363.50;5052939;28;20206;-73
2022/10/22 06:02:54;;;;;;;5.80;0.90;;;;;;;16.54;66.89;97376.78;5039712;28;20458;-74
2022/10/22 06:05:19;;;;;;;1.63;0.83;;;;;;;16.50;66.62;97378.19;5049505;28;20274;-74
2022/10/22 06:07:45;;;;;;;4.10;0.83;;;;;;;16.54;66.70;97380.28;5050559;28;20182;-73
2022/10/22 06:10:16;;;;;;;2.20;1.20;;;;;;;16.57;66.63;97382.53;5050725;28;20207;-76
2022/10/22 06:12:42;;;;;;;1.47;0.87;;;;;;;16.58;66.48;97401.88;5045994;28;20207;-75
2022/10/22 06:15:10;;;;;;;2.07;1.10;;;;;;;16.63;66.29;97396.88;5047893;28;20457;-75
2022/10/22 06:17:36;;;;;;;1.27;0.90;;;;;;;16.60;66.21;97389.28;5050444;28;20179;-75
2022/10/22 06:20:01;;;;;;;0.90;0.70;;;;;;;16.56;66.32;97388.00;5047237;28;20481;-74
2022/10/22 06:22:27;;;;;;;1.03;0.93;;;;;;;16.60;66.15;97386.66;5039656;28;20231;-75
2022/10/22 06:24:52;;;;;;;1.67;1.10;;;;;;;16.65;66.10;97400.13;5033586;28;20183;-75
2022/10/22 06:27:17;;;;;;;2.60;0.60;;;;;;;16.70;65.98;97408.34;5031128;28;20187;-74
2022/10/22 06:29:43;;;;;;;0.97;0.80;;;;;;;16.72;65.76;97418.72;5036231;28;20200;-74
2022/10/22 06:32:08;;;;;;;1.60;0.80;;;;;;;16.69;65.89;97411.97;5036988;28;20230;-72
2022/10/22 06:34:34;;;;;;;2.47;0.70;;;;;;;16.71;65.62;97417.06;5040179;28;20734;-74
2022/10/22 06:36:59;;;;;;;1.17;0.83;;;;;;;16.73;65.82;97415.06;5041260;28;20264;-75
2022/10/22 06:39:25;;;;;;;1.60;0.70;;;;;;;16.69;65.67;97417.28;5042809;28;20240;-74
2022/10/22 06:41:50;;;;;;;2.70;0.90;;;;;;;16.70;65.78;97426.03;5044901;28;20221;-75
2022/10/22 06:44:17;;;;;;;2.90;1.17;;;;;;;16.69;65.87;97419.91;5043424;28;20227;-74
2022/10/22 06:46:43;;;;;;;3.00;0.93;;;;;;;16.69;65.88;97425.22;5035665;28;20237;-74
2022/10/22 06:49:11;;;;;;;1.10;0.70;;;;;;;16.75;65.94;97423.66;5037233;28;20816;-74
2022/10/22 06:51:36;;;;;;;1.10;0.80;;;;;;;16.80;66.01;97433.66;5039678;28;20211;-75
2022/10/22 06:54:01;;;;;;;2.10;1.03;;;;;;;16.87;65.75;97447.81;5042207;28;20512;-75
2022/10/22 06:56:28;;;;;;;2.70;0.97;;;;;;;16.89;65.82;97440.47;5042130;28;20724;-74
2022/10/22 06:58:54;;;;;;;3.53;1.10;;;;;;;16.91;65.86;97442.97;5031813;28;20234;-74
2022/10/22 07:01:23;;;;;;;4.13;0.97;;;;;;;16.90;66.01;97442.13;5044559;28;20414;-74
2022/10/22 07:03:52;;;;;;;4.87;1.00;;;;;;;16.94;66.08;97458.47;5042960;28;20457;-75
2022/10/22 07:06:18;;;;;;;2.30;0.87;;;;;;;16.96;66.13;97461.75;5049832;28;20429;-74
2022/10/22 07:08:43;;;;;;;2.00;0.70;;;;;;;16.97;66.21;97464.25;5049849;28;20973;-73
2022/10/22 07:11:17;;;;;;;1.77;0.80;;;;;;;16.90;66.46;97460.66;5049669;28;20437;-72
2022/10/22 07:13:43;;;;;;;1.20;1.00;;;;;;;16.95;66.47;97466.25;5049996;28;20175;-74
2022/10/22 07:16:09;;;;;;;1.63;0.80;;;;;;;17.01;66.40;97465.50;5049839;28;20491;-75
2022/10/22 07:18:35;;;;;;;8.53;0.93;;;;;;;17.02;66.62;97472.44;5049559;28;20206;-75
2022/10/22 07:21:01;;;;;;;3.30;0.80;;;;;;;17.07;66.71;97463.13;5049165;28;20455;-73
2022/10/22 07:23:27;;;;;;;2.53;0.70;;;;;;;17.13;66.72;97472.97;5045933;28;21173;-73
2022/10/22 07:25:53;;;;;;;1.67;1.07;;;;;;;17.16;66.66;97472.56;5056668;28;20424;-71
2022/10/22 07:28:18;;;;;;;1.00;0.70;;;;;;;17.14;66.88;97477.22;5050037;28;20191;-73
2022/10/22 07:30:44;;;;;;;1.33;0.77;;;;;;;17.16;67.03;97483.16;5045183;28;20190;-71
2022/10/22 07:33:10;;;;;;;2.50;0.77;;;;;;;17.18;67.06;97481.16;5043407;28;20233;-72
2022/10/22 07:35:36;;;;;;;1.60;0.80;;;;;;;17.20;66.81;97484.44;5039437;28;20260;-71
2022/10/22 07:38:02;;;;;;;4.83;0.90;;;;;;;17.22;67.00;97482.44;5054555;28;20213;-72
2022/10/22 07:40:27;;;;;;;2.90;0.87;;;;;;;17.25;66.86;97495.31;5050888;28;20963;-72
2022/10/22 07:42:53;;;;;;;2.70;1.10;;;;;;;17.31;66.97;97502.47;5058486;28;20290;-72
2022/10/22 07:45:18;;;;;;;1.47;0.80;;;;;;;17.34;66.85;97502.13;5049375;28;20183;-73
2022/10/22 07:47:46;;;;;;;2.00;0.70;;;;;;;17.33;67.08;97505.78;5042329;28;20249;-73
2022/10/22 07:50:11;;;;;;;1.77;0.73;;;;;;;17.34;67.01;97501.28;5047071;28;20208;-73
2022/10/22 07:52:37;;;;;;;1.63;0.70;;;;;;;17.39;67.14;97500.75;5045592;28;20490;-72
2022/10/22 07:55:02;;;;;;;1.67;0.90;;;;;;;17.38;67.28;97501.75;5052215;28;20187;-73
2022/10/22 07:57:28;;;;;;;1.53;1.13;;;;;;;17.46;67.02;97498.97;5045061;28;20180;-74
2022/10/22 07:59:55;;;;;;;3.23;1.10;;;;;;;17.58;67.03;97508.03;5046858;28;20222;-74
2022/10/22 08:02:20;;;;;;;1.33;1.00;;;;;;;17.65;67.05;97508.91;5047097;28;20314;-72
2022/10/22 08:04:46;;;;;;;1.60;1.33;;;;;;;17.66;67.05;97509.75;5045042;28;20481;-74
2022/10/22 08:07:11;;;;;;;1.33;1.20;;;;;;;17.72;66.75;97513.47;5044671;28;20222;-73
2022/10/22 08:09:37;;;;;;;3.67;0.70;;;;;;;17.71;66.89;97509.16;5052173;28;20348;-73
2022/10/22 08:12:02;;;;;;;1.20;1.00;;;;;;;17.69;66.84;97509.38;5044734;28;20706;-74
2022/10/22 08:14:28;;;;;;;3.50;1.03;;;;;;;17.71;66.73;97509.16;5044847;28;20587;-73
2022/10/22 08:16:53;;;;;;;1.20;0.83;;;;;;;17.70;66.69;97516.31;5045924;28;20186;-72
2022/10/22 08:19:20;;;;;;;1.27;0.80;;;;;;;17.78;66.58;97529.44;5039465;28;20211;-74
2022/10/22 08:21:46;;;;;;;5.43;0.80;;;;;;;17.87;66.33;97522.16;5048999;28;20663;-73
2022/10/22 08:24:12;;;;;;;1.50;1.00;;;;;;;17.88;66.38;97534.41;5042768;28;20530;-73
2022/10/22 08:26:37;;;;;;;3.20;0.83;;;;;;;17.92;66.38;97525.03;5044247;28;20413;-73
2022/10/22 08:29:03;;;;;;;1.80;0.90;;;;;;;18.00;66.34;97528.63;5044448;28;20457;-72
2022/10/22 08:31:28;;;;;;;1.93;1.07;;;;;;;17.98;66.25;97528.78;5045440;28;20183;-72
2022/10/22 08:33:54;;;;;;;1.30;1.00;;;;;;;18.04;66.41;97520.09;5047284;28;20547;-73
2022/10/22 08:36:19;;;;;;;4.70;1.30;;;;;;;18.33;66.50;97528.88;5044933;28;20215;-72
2022/10/22 08:38:45;;;;;;;1.27;1.10;;;;;;;18.69;65.43;97525.19;5063114;28;20199;-74
2022/10/22 08:41:19;;;;;;;1.00;0.80;;;;;;;19.24;64.95;97515.63;5046575;28;20267;-73
2022/10/22 08:43:57;;;;;;;1.70;1.10;;;;;;;19.82;63.01;97522.25;5043147;28;20285;-72
2022/10/22 08:46:51;;;;;;;1.30;1.00;;;;;;;20.38;60.14;97513.84;5047176;28;20427;-73
2022/10/22 08:49:28;;;;;;;1.53;1.03;;;;;;;20.92;58.67;97520.88;5041331;28;20958;-72
2022/10/22 08:51:55;;;;;;;4.33;0.70;;;;;;;21.35;57.54;97516.78;5043088;28;20428;-74
2022/10/22 08:54:31;;;;;;;1.10;0.73;;;;;;;21.44;55.68;97523.50;5042753;28;20531;-73
2022/10/22 08:57:18;;;;;;;4.80;1.10;;;;;;;21.94;55.74;97528.91;5035818;28;20434;-73
2022/10/22 08:59:55;;;;;;;6.47;2.40;;;;;;;22.31;54.11;97522.84;5037789;28;20448;-74
2022/10/22 09:02:58;;;;;;;1.57;0.83;;;;;;;22.55;54.03;97533.75;5043875;28;20563;-74
2022/10/22 09:05:42;;;;;;;1.77;0.90;;;;;;;22.95;52.20;97527.13;5033485;28;20417;-74
2022/10/22 09:08:10;;;;;;;1.10;0.80;;;;;;;23.35;51.23;97536.53;5050881;28;20848;-73
2022/10/22 09:10:37;;;;;;;4.40;0.83;;;;;;;23.43;50.31;97533.53;5034427;28;20852;-75
2022/10/22 09:13:03;;;;;;;3.47;0.77;;;;;;;23.86;50.50;97537.00;5050817;28;20499;-74
2022/10/22 09:15:30;;;;;;;7.47;1.00;;;;;;;24.25;49.04;97531.28;5051930;28;20802;-73
2022/10/22 09:18:02;;;;;;;2.40;0.90;;;;;;;24.47;48.34;97536.84;5050305;28;20172;-73
2022/10/22 09:20:32;;;;;;;4.20;0.97;;;;;;;24.63;47.38;97548.72;5050511;28;20457;-74
2022/10/22 09:23:11;;;;;;;4.30;0.80;;;;;;;24.86;46.83;97539.84;5041973;28;20457;-74
2022/10/22 09:25:37;;;;;;;1.10;0.70;;;;;;;25.11;46.88;97544.09;5047731;28;20425;-73
2022/10/22 09:28:03;;;;;;;1.50;0.70;;;;;;;25.37;46.29;97548.09;5047993;28;20455;-73
2022/10/22 09:30:33;;;;;;;2.80;0.80;;;;;;;25.63;44.77;97547.75;5050075;28;20199;-73
2022/10/22 09:33:05;;;;;;;1.93;0.73;;;;;;;25.73;44.47;97543.38;5050447;28;20179;-74
2022/10/22 09:35:51;;;;;;;1.50;0.80;;;;;;;25.96;43.58;97541.59;5043375;28;20874;-74
2022/10/22 09:38:20;;;;;;;2.40;0.93;;;;;;;26.28;42.78;97556.34;5036336;28;20517;-73
2022/10/22 09:40:49;;;;;;;1.53;0.80;;;;;;;26.43;43.67;97548.53;5046835;28;20424;-73
2022/10/22 09:43:14;;;;;;;1.13;0.90;;;;;;;26.58;42.82;97547.91;5049510;28;20559;-74
2022/10/22 09:45:41;;;;;;;6.90;0.80;;;;;;;26.60;41.16;97561.09;5041020;28;20936;-73
2022/10/22 09:48:29;;;;;;;4.57;0.90;;;;;;;26.74;41.71;97550.81;5030817;28;20176;-74
2022/10/22 09:50:59;;;;;;;1.83;0.63;;;;;;;26.52;41.47;97549.72;5041719;28;20782;-74
2022/10/22 09:53:27;;;;;;;3.00;0.77;;;;;;;26.53;41.99;97559.41;5045561;28;20949;-74
2022/10/22 09:56:00;;;;;;;1.10;0.70;;;;;;;26.82;41.36;97563.84;5043785;28;20928;-73
2022/10/22 09:58:26;;;;;;;1.60;0.70;;;;;;;27.18;40.10;97561.59;5035921;28;20418;-74
2022/10/22 10:00:55;;;;;;;3.07;0.70;;;;;;;27.11;41.34;97560.97;5040845;28;20435;-74
2022/10/22 10:03:23;;;;;;;1.87;0.70;;;;;;;27.14;40.66;97571.25;5030882;28;20458;-74
2022/10/22 10:05:51;;;;;;;1.40;0.60;;;;;;;27.31;39.72;97570.34;5042980;28;20424;-74
2022/10/22 10:08:17;;;;;;;5.03;0.77;;;;;;;27.36;40.37;97562.34;5041644;28;20937;-74
2022/10/22 10:10:52;;;;;;;1.23;0.80;;;;;;;27.34;40.06;97572.53;5046271;28;20444;-73
2022/10/22 10:13:24;;;;;;;31.77;11.90;;;;;;;27.54;40.17;97575.47;5039584;28;20688;-72
2022/10/22 10:16:26;;;;;;;2.40;0.93;;;;;;;27.86;38.88;97579.25;5040044;28;21236;-73
2022/10/22 10:19:21;;;;;;;1.53;0.70;;;;;;;27.74;38.59;97584.81;5038909;28;20529;-72
2022/10/22 10:21:46;;;;;;;2.20;0.80;;;;;;;27.95;38.18;97572.34;5041904;28;20419;-72
2022/10/22 10:24:24;;;;;;;2.40;0.70;;;;;;;28.15;37.89;97579.00;5039925;28;20526;-73
2022/10/22 10:27:01;;;;;;;7.93;3.80;;;;;;;28.31;38.38;97583.44;5040878;28;20183;-72
2022/10/22 10:29:54;;;;;;;2.17;1.47;;;;;;;28.29;37.44;97579.38;5034178;28;20532;-73
2022/10/22 10:32:31;;;;;;;5.20;1.40;;;;;;;28.46;36.07;97585.41;5037558;28;20426;-73
2022/10/22 10:35:06;;;;;;;10.50;4.37;;;;;;;28.42;37.13;97587.00;5023101;28;20817;-73
2022/10/22 10:37:39;;;;;;;5.60;1.70;;;;;;;28.27;36.81;97593.09;5036091;28;20425;-74
2022/10/22 10:40:23;;;;;;;35.70;5.60;;;;;;;28.54;37.43;97589.50;5040341;28;20441;-73
2022/10/22 10:42:58;;;;;;;4.57;2.80;;;;;;;28.85;36.51;97594.28;5042456;28;20454;-73
2022/10/22 10:45:45;;;;;;;2.40;1.93;;;;;;;28.98;36.65;97593.81;5039091;28;20430;-73
2022/10/22 10:48:21;;;;;;;11.37;4.10;;;;;;;29.01;34.97;97597.88;5038012;28;20951;-73
2022/10/22 10:50:58;;;;;;;7.03;1.60;;;;;;;28.89;35.94;97598.09;5038349;28;20426;-74
2022/10/22 10:53:46;;;;;;;3.10;1.83;;;;;;;28.80;35.17;97611.25;5047303;28;20506;-75
2022/10/22 10:56:32;;;;;;;4.43;1.20;;;;;;;28.69;34.78;97599.56;5040792;28;20426;-73
2022/10/22 10:59:15;;;;;;;2.33;1.17;;;;;;;28.81;34.51;97602.91;5043859;28;20561;-72
2022/10/22 11:01:56;;;;;;;4.00;2.13;;;;;;;28.91;35.24;97601.34;5038951;28;20440;-73
2022/10/22 11:04:39;;;;;;;4.80;1.50;;;;;;;29.04;34.93;97600.06;5047284;28;20465;-73
2022/10/22 11:07:08;;;;;;;33.87;17.30;;;;;;;28.59;35.40;97605.72;5046241;28;20421;-74
2022/10/22 11:09:42;;;;;;;50.90;25.97;;;;;;;28.78;35.82;97602.63;5049061;28;20823;-75
2022/10/22 11:12:14;;;;;;;22.57;8.90;;;;;;;28.92;35.23;97598.38;5049982;28;20441;-75
2022/10/22 11:14:57;;;;;;;45.03;21.77;;;;;;;28.91;36.55;97591.38;5053277;28;20769;-73
2022/10/22 11:17:25;;;;;;;25.73;10.53;;;;;;;29.08;33.63;97595.75;5034267;28;20440;-74
2022/10/22 11:20:08;;;;;;;7.27;2.70;;;;;;;28.72;34.10;97592.88;5039696;28;20989;-71
2022/10/22 11:22:59;;;;;;;22.13;10.90;;;;;;;29.10;35.96;97590.91;5041446;28;20441;-75
2022/10/22 11:25:28;;;;;;;2.90;1.07;;;;;;;29.27;33.37;97602.31;5041073;28;20448;-73
2022/10/22 11:28:33;;;;;;;2.57;1.30;;;;;;;29.06;33.89;97592.50;5045062;28;20428;-73
2022/10/22 11:31:02;;;;;;;4.93;1.10;;;;;;;29.03;33.53;97588.47;5032407;28;20580;-73
2022/10/22 11:33:36;;;;;;;6.97;3.03;;;;;;;29.27;34.30;97586.09;5039172;28;20424;-72
2022/10/22 11:36:04;;;;;;;1.40;0.83;;;;;;;29.36;33.55;97588.34;5037752;28;20440;-73
2022/10/22 11:38:30;;;;;;;2.40;1.70;;;;;;;29.60;33.31;97585.97;5018003;28;20940;-72
2022/10/22 11:40:59;;;;;;;9.27;1.50;;;;;;;29.49;33.37;97585.13;5045056;28;20430;-72
2022/10/22 11:43:31;;;;;;;3.50;2.40;;;;;;;29.51;33.17;97580.25;5039960;28;20808;-72
2022/10/22 11:46:02;;;;;;;5.60;2.10;;;;;;;29.56;33.57;97574.88;5038330;28;20468;-72